Time;durP1;ratioP1;P1;durP2;ratioP2;P2;SDS_P1;SDS_P2;PMS_P1;PMS_P2;Temp;Humidity;BMP_temperature;BMP_pressure;BME280_temperature;BME280_humidity;BME280_pressure;Samples;Min_cycle;Max_cycle;Signal;HPM_P1;HPM_P2
2022/05/30 00:00:45;;;;;;;18.97;6.20;;;;;;;-143.84;78.32;45047.16;5109213;28;20837;-73
2022/05/30 00:03:13;;;;;;;12.87;6.00;;;;;;;-143.84;78.34;45075.72;5109263;28;21280;-73
2022/05/30 00:05:46;;;;;;;12.13;6.47;;;;;;;-143.84;78.55;45056.69;5109849;28;20431;-73
2022/05/30 00:08:13;;;;;;;13.80;5.40;;;;;;;-143.84;79.08;45052.88;5109937;28;20526;-73
2022/05/30 00:10:42;;;;;;;37.70;9.27;;;;;;;-143.84;79.21;45052.88;5109862;28;20952;-73
2022/05/30 00:13:09;;;;;;;15.90;6.40;;;;;;;-143.84;79.45;45056.69;5109630;28;20618;-73
2022/05/30 00:15:37;;;;;;;21.87;6.20;;;;;;;-143.84;79.83;45045.25;5109437;28;20839;-73
2022/05/30 00:18:04;;;;;;;10.53;5.77;;;;;;;-143.84;80.22;45075.72;5109628;28;21027;-73
2022/05/30 00:20:32;;;;;;;24.07;7.23;;;;;;;-143.84;80.30;45071.91;5109584;28;20479;-73
2022/05/30 00:22:59;;;;;;;16.57;7.07;;;;;;;-143.84;80.34;45083.34;5109642;28;20523;-73
2022/05/30 00:25:26;;;;;;;16.07;6.97;;;;;;;-143.84;80.58;45043.34;5110328;28;20438;-73
2022/05/30 00:27:54;;;;;;;13.67;6.60;;;;;;;-143.84;81.03;45073.81;5109842;28;20423;-74
2022/05/30 00:30:22;;;;;;;10.00;6.20;;;;;;;-143.84;81.56;45037.66;5109865;28;21001;-74
2022/05/30 00:32:49;;;;;;;18.67;7.10;;;;;;;-143.84;82.13;45062.41;5109610;28;20492;-73
2022/05/30 00:35:16;;;;;;;18.73;7.10;;;;;;;-143.84;82.28;45049.06;5108929;28;20494;-78
2022/05/30 00:37:43;;;;;;;22.50;6.77;;;;;;;-143.84;82.70;45056.69;5111502;28;21001;-77
2022/05/30 00:40:11;;;;;;;15.20;7.13;;;;;;;-143.84;83.08;45070.00;5111724;28;20435;-78
2022/05/30 00:42:38;;;;;;;14.47;7.70;;;;;;;-143.84;83.29;45068.13;5111748;28;20467;-78
2022/05/30 00:45:09;;;;;;;15.50;6.67;;;;;;;-143.84;83.36;45064.31;5111526;28;20442;-78
2022/05/30 00:47:37;;;;;;;10.30;6.50;;;;;;;-143.84;83.35;45047.16;5112262;28;20434;-78
2022/05/30 00:50:06;;;;;;;16.23;7.30;;;;;;;-143.84;83.69;45047.16;5112053;28;20437;-78
2022/05/30 00:52:36;;;;;;;17.30;7.13;;;;;;;-143.84;83.20;45075.72;5112779;28;20484;-78
2022/05/30 00:55:08;;;;;;;15.50;6.97;;;;;;;-143.84;83.14;45073.81;5112337;28;20431;-78
2022/05/30 00:57:36;;;;;;;14.80;6.90;;;;;;;-143.84;83.23;45068.13;5112251;28;20431;-79
2022/05/30 01:00:10;;;;;;;12.27;6.80;;;;;;;-143.84;83.32;45045.25;5112778;28;20431;-78
2022/05/30 01:02:39;;;;;;;18.60;7.47;;;;;;;-143.84;82.83;45090.97;5112407;28;20470;-78
2022/05/30 01:07:54;;;;;;;22.37;7.83;;;;;;;-143.84;82.35;45071.91;5112308;28;20410;-78
2022/05/30 01:10:23;;;;;;;16.10;6.47;;;;;;;-143.84;80.96;45056.69;5112376;28;20427;-79
2022/05/30 01:12:52;;;;;;;22.90;7.27;;;;;;;-143.84;80.87;45073.81;5112381;28;20438;-79
2022/05/30 01:15:25;;;;;;;13.20;7.10;;;;;;;-143.84;81.33;45083.34;5111770;28;20538;-77
2022/05/30 01:17:59;;;;;;;10.73;6.37;;;;;;;-143.84;81.84;45070.00;5112196;28;20446;-79
2022/05/30 01:20:43;;;;;;;19.40;7.30;;;;;;;-143.84;81.81;45056.69;5112268;28;20419;-78
2022/05/30 01:23:27;;;;;;;29.10;7.50;;;;;;;-143.84;81.99;45062.41;5107074;28;20464;-78
2022/05/30 01:26:28;;;;;;;17.00;7.53;;;;;;;-143.84;81.85;45035.75;5087970;28;20494;-73
2022/05/30 01:29:03;;;;;;;14.23;7.10;;;;;;;-143.84;81.42;45037.66;5088588;28;20450;-72
2022/05/30 01:31:31;;;;;;;15.13;6.47;;;;;;;-143.84;80.76;45058.59;5087982;28;20455;-72
2022/05/30 01:33:58;;;;;;;37.23;7.23;;;;;;;-143.84;80.41;45056.69;5088468;28;20537;-72
2022/05/30 01:36:29;;;;;;;11.97;6.50;;;;;;;-143.84;80.62;45054.78;5088662;28;20451;-72
2022/05/30 01:38:56;;;;;;;10.37;5.63;;;;;;;-143.84;80.56;45054.78;5088758;28;20436;-72
2022/05/30 01:41:24;;;;;;;20.87;7.80;;;;;;;-143.84;80.51;45064.31;5088933;28;21185;-73
2022/05/30 01:43:51;;;;;;;15.50;6.50;;;;;;;-143.84;80.42;45068.13;5088945;28;20432;-72
2022/05/30 01:46:23;;;;;;;15.00;7.43;;;;;;;-143.84;80.56;45081.44;5090957;28;20505;-72
2022/05/30 01:48:50;;;;;;;12.30;6.00;;;;;;;-143.84;80.11;45062.41;5092060;28;20807;-72
2022/05/30 01:51:19;;;;;;;17.50;7.63;;;;;;;-143.84;79.91;45047.16;5092107;28;20440;-72
2022/05/30 01:53:47;;;;;;;17.13;7.50;;;;;;;-143.84;80.46;45052.88;5092155;28;20786;-72
2022/05/30 01:56:15;;;;;;;20.27;6.13;;;;;;;-143.84;80.35;45049.06;5092144;28;20519;-73
2022/05/30 01:58:42;;;;;;;16.47;6.17;;;;;;;-143.84;79.76;45058.59;5091721;28;20947;-72
2022/05/30 02:01:18;;;;;;;17.73;6.23;;;;;;;-143.84;79.91;45049.06;5091766;28;20569;-73
2022/05/30 02:03:48;;;;;;;20.23;6.80;;;;;;;-143.84;79.96;45071.91;5092154;28;20552;-72
2022/05/30 02:06:16;;;;;;;10.87;6.53;;;;;;;-143.84;79.54;45056.69;5092178;28;20865;-72
2022/05/30 02:08:43;;;;;;;19.10;6.87;;;;;;;-143.84;79.46;45047.16;5092048;28;20444;-73
2022/05/30 02:11:12;;;;;;;18.63;7.43;;;;;;;-143.84;79.79;45050.97;5091621;28;20481;-72
2022/05/30 02:13:40;;;;;;;17.73;6.13;;;;;;;-143.84;79.25;45070.00;5091609;28;20439;-72
2022/05/30 02:18:57;;;;;;;16.20;6.50;;;;;;;-143.84;79.33;45066.22;5091572;28;20797;-72
2022/05/30 02:21:24;;;;;;;11.83;5.70;;;;;;;-143.84;79.30;45052.88;5091738;28;21051;-72
2022/05/30 02:23:51;;;;;;;21.63;6.07;;;;;;;-143.84;79.05;45075.72;5091430;28;20443;-72
2022/05/30 02:26:19;;;;;;;14.73;6.77;;;;;;;-143.84;78.72;45033.84;5091241;28;20497;-73
2022/05/30 02:28:46;;;;;;;18.03;6.67;;;;;;;-143.84;78.68;45079.53;5091195;28;20452;-72
2022/05/30 02:31:13;;;;;;;16.60;6.97;;;;;;;-143.84;79.13;45073.81;5091535;28;20497;-71
2022/05/30 02:36:41;;;;;;;20.17;7.47;;;;;;;-143.84;79.68;45050.97;5091138;28;20488;-71
2022/05/30 02:39:08;;;;;;;22.87;6.27;;;;;;;-143.84;79.85;45039.53;5091019;28;20443;-72
2022/05/30 02:41:35;;;;;;;20.80;7.13;;;;;;;-143.84;79.85;45064.31;5090464;28;20544;-71
2022/05/30 02:44:02;;;;;;;15.53;6.37;;;;;;;-143.84;80.05;45083.34;5090680;28;21240;-72
2022/05/30 02:46:30;;;;;;;18.63;6.53;;;;;;;-143.84;80.28;45049.06;5089955;28;20452;-72
2022/05/30 02:48:57;;;;;;;21.23;7.17;;;;;;;-143.84;80.38;45041.44;5090500;28;21312;-73
2022/05/30 02:51:26;;;;;;;17.13;7.60;;;;;;;-143.84;80.51;45081.44;5090976;28;20500;-71
2022/05/30 02:53:53;;;;;;;16.20;7.07;;;;;;;-143.84;80.68;45087.16;5090657;28;20877;-71
2022/05/30 02:56:20;;;;;;;16.33;6.40;;;;;;;-143.84;80.68;45052.88;5090642;28;20432;-72
2022/05/30 02:58:48;;;;;;;18.27;6.47;;;;;;;-143.84;80.62;45092.88;5090717;28;20892;-72
2022/05/30 03:01:15;;;;;;;14.17;6.83;;;;;;;-143.84;80.60;45071.91;5090566;28;20440;-72
2022/05/30 03:03:43;;;;;;;11.33;6.77;;;;;;;-143.84;80.76;45070.00;5090598;28;20941;-72
2022/05/30 03:06:11;;;;;;;16.03;7.27;;;;;;;-143.84;80.87;45079.53;5091701;28;20458;-72
2022/05/30 03:08:39;;;;;;;20.23;7.63;;;;;;;-143.84;80.50;45058.59;5106316;27;20434;-72
2022/05/30 03:11:06;;;;;;;16.17;6.37;;;;;;;-143.84;80.52;45041.44;5128671;27;20966;-73
2022/05/30 03:13:34;;;;;;;17.80;6.93;;;;;;;-143.84;80.77;45039.53;5115818;27;20835;-72
2022/05/30 03:16:01;;;;;;;16.63;6.37;;;;;;;-143.84;80.73;45071.91;5089723;28;20799;-73
2022/05/30 03:18:28;;;;;;;18.23;7.10;;;;;;;-143.84;80.66;45054.78;5106774;28;20470;-73
2022/05/30 03:20:56;;;;;;;22.03;6.93;;;;;;;-143.84;80.28;45079.53;5109811;27;20427;-72
2022/05/30 03:23:23;;;;;;;11.13;5.27;;;;;;;-143.84;80.43;45077.63;5127281;27;20906;-73
2022/05/30 03:25:52;;;;;;;17.23;6.17;;;;;;;-143.84;80.04;45030.03;5090657;28;20444;-73
2022/05/30 03:28:19;;;;;;;21.23;6.47;;;;;;;-143.84;79.82;45077.63;5104537;27;20449;-74
2022/05/30 03:30:46;;;;;;;18.13;6.30;;;;;;;-143.84;79.88;45052.88;5117609;27;20464;-74
2022/05/30 03:33:13;;;;;;;12.67;5.93;;;;;;;-143.84;80.02;45049.06;5102438;28;20435;-73
2022/05/30 03:35:41;;;;;;;15.40;7.50;;;;;;;-143.84;80.38;45058.59;5104898;28;20480;-74
2022/05/30 03:38:08;;;;;;;15.03;7.10;;;;;;;-143.84;79.85;45041.44;5104769;28;20432;-74
2022/05/30 03:40:38;;;;;;;20.40;7.23;;;;;;;-143.84;79.67;45049.06;5110714;28;20435;-73
2022/05/30 03:43:09;;;;;;;20.03;7.50;;;;;;;-143.84;79.08;45041.44;5110260;28;20562;-72
2022/05/30 03:45:37;;;;;;;17.03;6.77;;;;;;;-143.84;78.52;45064.31;5105395;28;20420;-73
2022/05/30 03:48:06;;;;;;;14.73;6.33;;;;;;;-143.84;78.14;45098.56;5111386;28;20434;-77
2022/05/30 03:50:33;;;;;;;12.30;5.53;;;;;;;-143.84;77.74;45052.88;5112588;28;20443;-77
2022/05/30 03:53:05;;;;;;;10.87;5.83;;;;;;;-143.84;77.11;45039.53;5112724;28;20439;-77
2022/05/30 03:55:34;;;;;;;15.10;5.80;;;;;;;-143.84;76.18;45039.53;5112407;28;20443;-77
2022/05/30 03:58:02;;;;;;;17.67;5.70;;;;;;;-143.84;74.58;45033.84;5103829;28;20511;-73
2022/05/30 04:00:32;;;;;;;13.23;5.83;;;;;;;-143.84;73.67;45079.53;5109852;28;20470;-78
2022/05/30 04:03:00;;;;;;;14.37;5.73;;;;;;;-143.84;73.76;45070.00;5098452;28;21030;-72
2022/05/30 04:05:27;;;;;;;18.50;6.30;;;;;;;-143.84;73.76;45018.59;5109199;28;20439;-73
2022/05/30 04:07:54;;;;;;;11.63;6.00;;;;;;;-143.84;73.87;45039.53;5108200;28;20500;-73
2022/05/30 04:10:21;;;;;;;16.50;5.30;;;;;;;-143.84;74.01;45037.66;5107817;28;20435;-73
2022/05/30 04:12:49;;;;;;;16.57;6.13;;;;;;;-143.84;73.90;45047.16;5108337;28;20431;-73
2022/05/30 04:15:19;;;;;;;19.17;5.33;;;;;;;-143.84;73.50;45031.94;5109427;28;20905;-73
2022/05/30 04:17:49;;;;;;;28.03;6.20;;;;;;;-143.84;72.58;45060.50;5108983;28;20439;-73
2022/05/30 04:20:17;;;;;;;12.30;6.20;;;;;;;-143.84;73.64;45049.06;5109339;28;20450;-73
2022/05/30 04:22:45;;;;;;;15.30;6.53;;;;;;;-143.84;74.57;45030.03;5108475;28;21308;-73
2022/05/30 04:25:13;;;;;;;19.60;7.50;;;;;;;-143.84;75.64;45047.16;5108970;28;20474;-73
2022/05/30 04:27:40;;;;;;;17.47;5.63;;;;;;;-143.84;75.38;45016.69;5100600;28;20874;-73
2022/05/30 04:30:09;;;;;;;27.23;5.00;;;;;;;-143.84;76.07;45030.03;5102635;28;20439;-73
2022/05/30 04:32:37;;;;;;;27.47;6.50;;;;;;;-143.84;75.32;45037.66;5099930;28;20442;-73
2022/05/30 04:35:06;;;;;;;9.10;5.30;;;;;;;-143.84;74.69;45060.50;5101214;28;20486;-72
2022/05/30 04:37:33;;;;;;;15.97;5.80;;;;;;;-143.84;74.43;45052.88;5099605;28;20439;-73
2022/05/30 04:40:01;;;;;;;16.80;6.20;;;;;;;-143.84;74.04;45054.78;5106609;28;20435;-73
2022/05/30 04:42:28;;;;;;;11.73;5.73;;;;;;;-143.84;72.31;45026.22;5108757;28;20478;-73
2022/05/30 04:44:55;;;;;;;20.60;5.40;;;;;;;-143.84;71.02;45035.75;5109050;28;20461;-73
2022/05/30 04:47:23;;;;;;;12.77;5.60;;;;;;;-143.84;70.26;45024.31;5109103;28;20469;-73
2022/05/30 04:49:50;;;;;;;20.93;5.20;;;;;;;-143.84;69.43;45012.88;5109256;28;20435;-73
2022/05/30 04:52:19;;;;;;;20.97;6.20;;;;;;;-143.84;68.32;45028.13;5109292;28;20507;-73
2022/05/30 04:54:46;;;;;;;14.90;5.30;;;;;;;-143.84;66.56;45020.50;5108928;28;20960;-73
2022/05/30 04:57:13;;;;;;;19.83;6.03;;;;;;;-143.84;63.42;44990.03;5108748;28;20431;-73
2022/05/30 04:59:42;;;;;;;10.97;4.63;;;;;;;-143.84;61.52;45005.28;5108862;28;20952;-73
2022/05/30 05:02:09;;;;;;;14.23;6.47;;;;;;;-143.84;61.15;45003.38;5108812;28;20479;-72
2022/05/30 05:04:39;;;;;;;23.73;6.67;;;;;;;-143.84;58.94;44978.63;5108961;28;20472;-72
2022/05/30 05:07:07;;;;;;;16.70;6.90;;;;;;;-143.84;58.49;44991.94;5108818;28;20431;-72
2022/05/30 05:09:46;;;;;;;15.47;5.53;;;;;;;-143.84;57.07;44997.66;5109082;28;20435;-72
2022/05/30 05:12:13;;;;;;;21.27;5.53;;;;;;;-143.84;55.80;44991.94;5108970;28;20888;-72
2022/05/30 05:14:41;;;;;;;16.90;5.60;;;;;;;-143.84;55.74;44969.09;5108985;28;20435;-72
2022/05/30 05:17:09;;;;;;;14.83;5.20;;;;;;;-143.84;54.05;44986.22;5109003;28;20434;-72
2022/05/30 05:19:37;;;;;;;13.40;5.10;;;;;;;-143.84;52.26;44965.28;5108676;28;20924;-72
2022/05/30 05:22:05;;;;;;;20.00;6.00;;;;;;;-143.84;51.73;44972.91;5112484;28;20482;-72
2022/05/30 05:24:33;;;;;;;18.47;5.87;;;;;;;-143.84;51.58;44982.41;5112634;28;20431;-72
2022/05/30 05:27:01;;;;;;;23.57;5.67;;;;;;;-143.84;49.68;44990.03;5112735;28;20448;-72
2022/05/30 05:29:28;;;;;;;17.17;5.20;;;;;;;-143.84;49.40;44978.63;5112684;28;20439;-72
2022/05/30 05:31:57;;;;;;;15.27;5.53;;;;;;;-143.84;49.39;44974.81;5112578;28;21012;-72
2022/05/30 05:34:24;;;;;;;20.50;5.60;;;;;;;-143.84;48.07;44951.97;5112069;28;21348;-72
2022/05/30 05:36:52;;;;;;;9.60;4.70;;;;;;;-143.84;47.92;44957.66;5112200;28;20515;-72
2022/05/30 05:39:20;;;;;;;11.87;4.93;;;;;;;-143.84;47.20;44980.53;5112521;28;20947;-72
2022/05/30 05:41:48;;;;;;;12.47;5.33;;;;;;;-143.84;46.25;44967.19;5112590;28;20449;-72
2022/05/30 05:44:20;;;;;;;18.27;6.00;;;;;;;-143.84;47.40;44942.44;5112291;28;20447;-73
2022/05/30 05:46:47;;;;;;;24.67;5.80;;;;;;;-143.84;48.40;44940.53;5112410;28;20473;-72
2022/05/30 05:49:15;;;;;;;13.13;5.93;;;;;;;-143.84;48.20;44978.63;5112334;28;21017;-72
2022/05/30 05:51:42;;;;;;;15.00;5.80;;;;;;;-143.84;49.41;44984.31;5112512;28;20447;-73
2022/05/30 05:54:10;;;;;;;30.20;10.50;;;;;;;-143.84;54.37;44993.84;5112352;28;20455;-73
2022/05/30 05:56:37;;;;;;;31.87;12.00;;;;;;;-143.84;55.79;44955.75;5112049;28;20503;-72
2022/05/30 05:59:05;;;;;;;28.00;11.60;;;;;;;-143.84;57.39;44969.09;5112200;28;20454;-72
2022/05/30 06:01:35;;;;;;;31.53;12.20;;;;;;;-143.84;59.34;44972.91;5111972;28;20447;-73
2022/05/30 06:04:05;;;;;;;33.60;13.67;;;;;;;-143.84;59.08;44990.03;5111786;28;20475;-73
2022/05/30 06:06:33;;;;;;;29.03;13.07;;;;;;;-143.84;60.91;45012.88;5111904;28;20515;-73
2022/05/30 06:09:01;;;;;;;26.27;10.67;;;;;;;-143.84;60.75;44978.63;5111737;28;20427;-73
2022/05/30 06:11:28;;;;;;;23.77;11.00;;;;;;;-143.84;60.29;44980.53;5111781;28;20933;-75
2022/05/30 06:13:57;;;;;;;36.20;10.30;;;;;;;-143.84;60.23;44991.94;5112296;28;20571;-75
2022/05/30 06:16:27;;;;;;;30.27;9.17;;;;;;;-143.84;58.44;44986.22;5112222;28;20453;-75
2022/05/30 06:18:57;;;;;;;26.17;9.13;;;;;;;-143.84;57.94;44971.00;5112627;28;20435;-75
2022/05/30 06:21:26;;;;;;;24.37;9.10;;;;;;;-143.84;58.00;44971.00;5114223;28;20439;-78
2022/05/30 06:23:54;;;;;;;22.73;8.53;;;;;;;-143.84;56.74;44972.91;5114253;28;20471;-78
2022/05/30 06:26:22;;;;;;;19.67;8.67;;;;;;;-143.84;54.86;44961.47;5114526;28;20839;-78
2022/05/30 06:28:50;;;;;;;28.10;8.83;;;;;;;-143.84;53.90;44950.06;5114439;28;20436;-78
2022/05/30 06:31:19;;;;;;;36.07;17.97;;;;;;;-143.84;54.63;44946.25;5106080;28;20435;-78
2022/05/30 06:33:47;;;;;;;40.70;21.17;;;;;;;-143.84;55.02;44967.19;5114025;28;20976;-78
2022/05/30 06:36:17;;;;;;;31.83;17.57;;;;;;;-143.84;55.74;44948.16;5114034;28;20450;-78
2022/05/30 06:38:46;;;;;;;40.73;14.60;;;;;;;-143.84;55.88;44967.19;5113705;28;20439;-78
2022/05/30 06:41:15;;;;;;;29.40;14.60;;;;;;;-143.84;56.86;44965.28;5114146;28;20455;-78
2022/05/30 06:43:43;;;;;;;29.03;14.43;;;;;;;-143.84;58.01;44999.56;5113759;28;20490;-78
2022/05/30 06:46:11;;;;;;;31.53;15.50;;;;;;;-143.84;55.78;44976.72;5114271;28;20871;-78
2022/05/30 06:48:39;;;;;;;28.53;15.50;;;;;;;-143.84;56.52;44957.66;5113766;28;20431;-78
2022/05/30 06:51:08;;;;;;;33.17;15.73;;;;;;;-143.84;56.81;44978.63;5114509;28;20476;-78
2022/05/30 06:53:37;;;;;;;30.30;14.60;;;;;;;-143.84;56.71;44976.72;5114488;28;20492;-78
2022/05/30 06:56:12;;;;;;;26.20;14.47;;;;;;;-143.84;57.17;44953.88;5113898;28;20427;-78
2022/05/30 06:58:40;;;;;;;25.50;14.23;;;;;;;-143.84;55.74;44965.28;5114198;28;20438;-78
2022/05/30 07:01:07;;;;;;;24.73;13.30;;;;;;;-143.84;55.94;44967.19;5113686;28;20442;-78
2022/05/30 07:03:35;;;;;;;23.77;11.10;;;;;;;-143.84;55.17;44986.22;5112721;28;20463;-78
2022/05/30 07:06:06;;;;;;;24.83;9.10;;;;;;;-143.84;53.87;44934.81;5113115;28;20962;-78
2022/05/30 07:08:34;;;;;;;32.47;10.33;;;;;;;-143.84;54.06;44940.53;5113610;28;20439;-79
2022/05/30 07:11:02;;;;;;;20.33;10.20;;;;;;;-143.84;51.64;44965.28;5113366;28;20431;-78
2022/05/30 07:13:30;;;;;;;20.67;11.63;;;;;;;-143.84;51.57;44953.88;5114005;28;20504;-78
2022/05/30 07:15:57;;;;;;;25.20;11.57;;;;;;;-143.84;51.84;44936.72;5113669;28;20450;-79
2022/05/30 07:18:25;;;;;;;17.77;10.60;;;;;;;-143.84;52.78;44925.31;5113444;28;20435;-78
2022/05/30 07:20:57;;;;;;;17.00;12.57;;;;;;;-143.84;50.57;44959.56;5113739;28;20466;-78
2022/05/30 07:23:24;;;;;;;33.23;12.10;;;;;;;-143.84;51.53;44934.81;5113686;28;20527;-78
2022/05/30 07:25:57;;;;;;;18.60;11.33;;;;;;;-143.84;52.41;44980.53;5113390;28;20439;-78
2022/05/30 07:28:28;;;;;;;22.30;9.93;;;;;;;-143.84;51.73;44971.00;5113267;28;20481;-78
2022/05/30 07:30:56;;;;;;;13.97;9.87;;;;;;;-143.84;51.89;44974.81;5113187;28;20458;-78
2022/05/30 07:33:23;;;;;;;15.27;10.13;;;;;;;-143.84;51.50;44946.25;5113126;28;20439;-77
2022/05/30 07:35:51;;;;;;;19.50;10.10;;;;;;;-143.84;53.55;44971.00;5113531;28;20475;-78
2022/05/30 07:38:18;;;;;;;15.33;7.90;;;;;;;-143.84;54.21;44950.06;5112894;28;20484;-78
2022/05/30 07:40:45;;;;;;;12.40;8.10;;;;;;;-143.84;53.26;44959.56;5113130;28;20905;-78
2022/05/30 07:43:12;;;;;;;15.67;8.13;;;;;;;-143.84;54.27;44969.09;5112227;28;20481;-78
2022/05/30 07:45:41;;;;;;;12.83;7.20;;;;;;;-143.84;54.40;44946.25;5113328;28;20430;-78
2022/05/30 07:48:09;;;;;;;14.70;8.73;;;;;;;-143.84;53.75;44948.16;5112608;28;21310;-78
2022/05/30 07:50:37;;;;;;;11.77;7.90;;;;;;;-143.84;54.23;44925.31;5113032;28;21007;-78
2022/05/30 07:53:05;;;;;;;10.10;6.53;;;;;;;-143.84;53.01;44969.09;5112749;28;21002;-78
2022/05/30 07:55:33;;;;;;;12.47;7.33;;;;;;;-143.84;54.24;44942.44;5113034;28;21240;-78
2022/05/30 07:58:04;;;;;;;9.77;6.90;;;;;;;-143.84;52.80;44959.56;5113195;28;20468;-78
2022/05/30 08:00:34;;;;;;;12.43;7.20;;;;;;;-143.84;50.18;44971.00;5112782;28;20968;-78
2022/05/30 08:03:04;;;;;;;7.40;5.60;;;;;;;-143.84;49.14;44929.09;5112506;28;20478;-78
2022/05/30 08:05:32;;;;;;;17.07;7.83;;;;;;;-143.84;48.11;44923.41;5112939;28;20442;-79
2022/05/30 08:07:59;;;;;;;8.87;6.30;;;;;;;-143.84;46.55;44934.81;5112625;28;20492;-79
2022/05/30 08:10:26;;;;;;;17.73;6.90;;;;;;;-143.84;47.26;44931.00;5110360;28;20843;-78
2022/05/30 08:12:53;;;;;;;11.07;6.70;;;;;;;-143.84;46.67;44921.50;5110396;28;20911;-78
2022/05/30 08:15:21;;;;;;;17.20;6.00;;;;;;;-143.84;48.31;44923.41;5111079;28;20975;-78
2022/05/30 08:17:48;;;;;;;13.77;7.47;;;;;;;-143.84;47.41;44950.06;5112420;28;20430;-78
2022/05/30 08:20:18;;;;;;;13.20;7.20;;;;;;;-143.84;47.63;44915.78;5103415;28;20439;-78
2022/05/30 08:22:45;;;;;;;11.33;7.10;;;;;;;-143.84;46.19;44938.63;5112518;28;20497;-78
2022/05/30 08:25:15;;;;;;;11.97;7.43;;;;;;;-143.84;45.62;44938.63;5111577;28;20515;-78
2022/05/30 08:27:43;;;;;;;7.47;5.67;;;;;;;-143.84;46.95;44917.69;5111223;28;20484;-78
2022/05/30 08:30:12;;;;;;;10.43;6.60;;;;;;;-143.84;45.53;44913.88;5112122;28;20814;-78
2022/05/30 08:32:41;;;;;;;13.00;6.77;;;;;;;-143.84;43.95;44942.44;5111267;28;21272;-78
2022/05/30 08:35:12;;;;;;;9.87;5.60;;;;;;;-143.84;43.76;44902.44;5110284;28;20478;-78
2022/05/30 08:37:42;;;;;;;7.57;5.80;;;;;;;-143.84;43.22;44913.88;5112316;28;20530;-78
2022/05/30 08:42:59;;;;;;;8.30;6.30;;;;;;;-143.84;43.84;44915.78;5112257;28;20403;-79
2022/05/30 08:45:27;;;;;;;11.23;6.50;;;;;;;-143.84;43.76;44917.69;5111803;28;20431;-78
2022/05/30 08:47:56;;;;;;;6.17;5.40;;;;;;;-143.84;44.69;44904.34;5111394;28;20435;-78
2022/05/30 08:50:35;;;;;;;16.07;6.37;;;;;;;-143.84;43.02;44875.78;5111350;28;20916;-78
2022/05/30 08:53:37;;;;;;;7.50;6.40;;;;;;;-143.84;42.24;44889.13;5111601;28;20437;-78
2022/05/30 08:56:18;;;;;;;8.40;6.03;;;;;;;-143.84;42.79;44887.22;5111470;28;20446;-78
2022/05/30 08:59:06;;;;;;;10.83;5.57;;;;;;;-143.84;42.36;44885.31;5115594;28;20499;-78
2022/05/30 09:01:38;;;;;;;14.20;5.20;;;;;;;-143.84;41.95;44887.22;5115171;28;20488;-78
2022/05/30 09:04:16;;;;;;;11.67;6.67;;;;;;;-143.84;42.07;44902.44;5114870;28;20467;-77
2022/05/30 09:06:47;;;;;;;8.97;5.60;;;;;;;-143.84;42.67;44891.03;5113956;28;20522;-78
2022/05/30 09:09:22;;;;;;;8.13;6.90;;;;;;;-143.84;41.78;44900.53;5115437;28;20434;-78
2022/05/30 09:11:56;;;;;;;9.40;6.00;;;;;;;-143.84;43.04;44894.84;5115096;28;20426;-78
2022/05/30 09:14:31;;;;;;;8.63;5.50;;;;;;;-143.84;42.99;44929.09;5115503;28;20454;-78
2022/05/30 09:17:02;;;;;;;8.47;6.03;;;;;;;-143.84;42.47;44896.75;5116225;28;20414;-78
2022/05/30 09:19:30;;;;;;;8.80;5.30;;;;;;;-143.84;43.67;44906.25;5115221;28;20434;-78
2022/05/30 09:22:01;;;;;;;13.70;5.90;;;;;;;-143.84;43.72;44891.03;5115235;28;20522;-78
2022/05/30 09:24:30;;;;;;;11.70;6.07;;;;;;;-143.84;42.78;44904.34;5115498;28;20474;-78
2022/05/30 09:27:00;;;;;;;5.10;4.47;;;;;;;-143.84;43.22;44896.75;5115202;28;20521;-78
2022/05/30 09:29:31;;;;;;;6.07;5.53;;;;;;;-143.84;44.07;44891.03;5115563;28;20447;-78
2022/05/30 09:32:10;;;;;;;14.30;6.23;;;;;;;-143.84;44.80;44873.88;5115283;28;20435;-78
2022/05/30 09:34:45;;;;;;;11.07;5.77;;;;;;;-143.84;42.71;44896.75;5115150;28;20459;-78
2022/05/30 09:37:25;;;;;;;7.70;5.43;;;;;;;-143.84;43.50;44871.97;5115471;28;20454;-78
2022/05/30 09:39:53;;;;;;;11.97;6.03;;;;;;;-143.84;43.50;44892.94;5115487;28;20488;-78
2022/05/30 09:42:30;;;;;;;6.73;5.10;;;;;;;-143.84;44.18;44908.16;5114722;28;20914;-78
2022/05/30 09:45:07;;;;;;;11.23;5.13;;;;;;;-143.84;43.07;44873.88;5114719;28;20466;-78
2022/05/30 09:47:35;;;;;;;20.67;5.33;;;;;;;-143.84;42.42;44883.41;5114809;28;20430;-78
2022/05/30 09:50:13;;;;;;;12.33;4.90;;;;;;;-143.84;41.14;44877.69;5114975;28;20528;-78
2022/05/30 09:52:41;;;;;;;6.47;4.37;;;;;;;-143.84;41.17;44858.66;5114918;28;20434;-79
2022/05/30 09:55:25;;;;;;;6.30;4.80;;;;;;;-143.84;40.89;44889.13;5115069;28;20474;-78
2022/05/30 09:57:55;;;;;;;5.20;4.70;;;;;;;-143.84;41.08;44892.94;5114714;28;20427;-78
2022/05/30 10:00:34;;;;;;;16.53;5.60;;;;;;;-143.84;42.94;44904.34;5115186;28;20438;-78
2022/05/30 10:03:06;;;;;;;5.70;5.20;;;;;;;-143.84;41.28;44875.78;5114224;28;21026;-78
2022/05/30 10:05:35;;;;;;;6.10;5.17;;;;;;;-143.84;42.46;44864.38;5112528;28;20505;-79
2022/05/30 10:08:05;;;;;;;8.70;4.53;;;;;;;-143.84;43.24;44908.16;5113439;28;20423;-78
2022/05/30 10:10:38;;;;;;;9.60;5.40;;;;;;;-143.84;43.25;44904.34;5114624;28;20427;-78
2022/05/30 10:13:08;;;;;;;10.90;5.43;;;;;;;-143.84;42.23;44879.59;5114396;28;20447;-78
2022/05/30 10:15:38;;;;;;;10.83;5.20;;;;;;;-143.84;43.95;44911.97;5114663;28;20504;-78
2022/05/30 10:18:27;;;;;;;13.00;6.67;;;;;;;-143.84;42.91;44910.06;5114567;28;20437;-78
2022/05/30 10:21:05;;;;;;;5.43;4.90;;;;;;;-143.84;43.35;44866.28;5115168;28;20419;-78
2022/05/30 10:29:34;;;;;;;6.03;5.43;;;;;;;-143.84;42.73;44919.59;5113855;28;20423;-79
2022/05/30 10:32:08;;;;;;;15.83;6.20;;;;;;;-143.84;41.63;44911.97;5114562;28;20803;-78
2022/05/30 10:34:53;;;;;;;6.87;6.20;;;;;;;-143.84;41.22;44892.94;5114569;28;20511;-78
2022/05/30 10:37:41;;;;;;;7.07;6.40;;;;;;;-143.84;41.11;44910.06;5113958;28;20442;-78
2022/05/30 10:40:21;;;;;;;9.73;5.97;;;;;;;-143.84;41.54;44927.19;5114181;28;20431;-78
2022/05/30 10:42:56;;;;;;;8.80;7.37;;;;;;;-143.84;42.62;44925.31;5111548;28;20526;-73
2022/05/30 10:45:31;;;;;;;10.03;7.43;;;;;;;-143.84;43.47;44904.34;5111374;28;20905;-74
2022/05/30 10:47:59;;;;;;;8.37;6.73;;;;;;;-143.84;44.65;44929.09;5111159;28;20466;-73
2022/05/30 10:50:46;;;;;;;11.30;6.53;;;;;;;-143.84;43.96;44917.69;5111046;28;20443;-73
2022/05/30 10:53:25;;;;;;;9.63;5.87;;;;;;;-143.84;42.41;44923.41;5112383;28;20435;-78
2022/05/30 10:55:56;;;;;;;8.10;6.73;;;;;;;-143.84;43.90;44919.59;5111108;28;20499;-73
2022/05/30 10:58:30;;;;;;;6.30;5.63;;;;;;;-143.84;41.74;44908.16;5110759;28;20431;-72
2022/05/30 11:01:02;;;;;;;13.10;6.20;;;;;;;-143.84;43.61;44892.94;5111026;28;20443;-72
2022/05/30 11:03:36;;;;;;;9.83;5.80;;;;;;;-143.84;43.39;44927.19;5110880;28;20450;-73
2022/05/30 11:06:08;;;;;;;8.93;5.83;;;;;;;-143.84;43.63;44906.25;5110975;28;20435;-73
2022/05/30 11:08:46;;;;;;;13.13;5.97;;;;;;;-143.84;43.63;44898.66;5110800;28;20474;-72
2022/05/30 11:11:18;;;;;;;12.60;6.60;;;;;;;-143.84;42.54;44923.41;5110441;28;20446;-72
2022/05/30 11:13:52;;;;;;;10.50;6.50;;;;;;;-143.84;42.35;44887.22;5108370;27;20516;-72
2022/05/30 11:16:34;;;;;;;6.97;5.50;;;;;;;-143.84;42.69;44904.34;5110866;28;20864;-73
2022/05/30 11:19:08;;;;;;;13.50;6.27;;;;;;;-143.84;41.77;44931.00;5109383;28;20435;-72
2022/05/30 11:21:42;;;;;;;9.23;6.10;;;;;;;-143.84;40.34;44917.69;5110747;28;20435;-73
2022/05/30 11:24:10;;;;;;;10.80;5.63;;;;;;;-143.84;41.25;44900.53;5110223;28;20570;-73
2022/05/30 11:26:55;;;;;;;8.17;5.23;;;;;;;-143.84;41.58;44931.00;5110431;28;20547;-73
2022/05/30 11:30:02;;;;;;;6.23;5.10;;;;;;;-143.84;41.85;44892.94;5110041;28;20851;-73
2022/05/30 11:32:55;;;;;;;11.20;5.30;;;;;;;-143.84;40.36;44921.50;5110419;28;20498;-73
2022/05/30 11:35:34;;;;;;;8.10;4.67;;;;;;;-143.84;39.19;44900.53;5110083;28;20544;-73
2022/05/30 11:38:29;;;;;;;5.77;5.07;;;;;;;-143.84;40.51;44898.66;5110363;28;20431;-73
2022/05/30 11:41:07;;;;;;;7.30;5.57;;;;;;;-143.84;40.06;44931.00;5110185;28;20439;-72